sensor_id;sensor_type;location;lat;lon;timestamp;P1;durP1;ratioP1;P2;durP2;ratioP2
21000;SDS011;10658;50.920;12.238;2023-11-21T00:02:12;1.67;;;0.73;;
21000;SDS011;10658;50.920;12.238;2023-11-21T00:06:13;1.10;;;0.50;;
21000;SDS011;10658;50.920;12.238;2023-11-21T00:10:14;2.80;;;1.23;;
21000;SDS011;10658;50.920;12.238;2023-11-21T00:14:16;3.00;;;1.35;;
21000;SDS011;10658;50.920;12.238;2023-11-21T00:18:16;1.83;;;0.95;;
21000;SDS011;10658;50.920;12.238;2023-11-21T00:22:17;1.20;;;1.10;;
21000;SDS011;10658;50.920;12.238;2023-11-21T00:26:18;1.45;;;1.05;;
21000;SDS011;10658;50.920;12.238;2023-11-21T00:30:27;1.15;;;0.80;;
21000;SDS011;10658;50.920;12.238;2023-11-21T00:34:29;1.83;;;1.17;;
21000;SDS011;10658;50.920;12.238;2023-11-21T00:38:29;0.95;;;0.70;;
21000;SDS011;10658;50.920;12.238;2023-11-21T00:42:32;2.08;;;0.93;;
21000;SDS011;10658;50.920;12.238;2023-11-21T00:46:34;2.25;;;0.90;;
21000;SDS011;10658;50.920;12.238;2023-11-21T00:50:34;1.98;;;1.08;;
21000;SDS011;10658;50.920;12.238;2023-11-21T00:54:35;1.63;;;1.10;;
21000;SDS011;10658;50.920;12.238;2023-11-21T00:58:36;1.75;;;0.68;;
21000;SDS011;10658;50.920;12.238;2023-11-21T01:02:37;2.45;;;0.93;;
21000;SDS011;10658;50.920;12.238;2023-11-21T01:06:37;1.25;;;1.02;;
21000;SDS011;10658;50.920;12.238;2023-11-21T01:10:39;2.53;;;0.95;;
21000;SDS011;10658;50.920;12.238;2023-11-21T01:14:39;1.35;;;0.93;;
21000;SDS011;10658;50.920;12.238;2023-11-21T01:18:41;6.07;;;1.08;;
21000;SDS011;10658;50.920;12.238;2023-11-21T01:22:41;0.95;;;0.90;;
21000;SDS011;10658;50.920;12.238;2023-11-21T01:26:43;2.67;;;1.00;;
21000;SDS011;10658;50.920;12.238;2023-11-21T01:30:45;2.95;;;0.90;;
21000;SDS011;10658;50.920;12.238;2023-11-21T01:34:47;3.40;;;1.33;;
21000;SDS011;10658;50.920;12.238;2023-11-21T01:38:48;1.90;;;1.15;;
21000;SDS011;10658;50.920;12.238;2023-11-21T01:42:50;2.92;;;1.08;;
21000;SDS011;10658;50.920;12.238;2023-11-21T01:46:51;1.40;;;1.30;;
21000;SDS011;10658;50.920;12.238;2023-11-21T01:50:52;1.88;;;1.30;;
21000;SDS011;10658;50.920;12.238;2023-11-21T01:54:53;3.78;;;1.98;;
21000;SDS011;10658;50.920;12.238;2023-11-21T01:58:54;2.75;;;1.40;;
21000;SDS011;10658;50.920;12.238;2023-11-21T02:02:55;7.32;;;4.30;;
21000;SDS011;10658;50.920;12.238;2023-11-21T02:06:57;6.50;;;4.00;;
21000;SDS011;10658;50.920;12.238;2023-11-21T02:10:58;5.40;;;3.15;;
21000;SDS011;10658;50.920;12.238;2023-11-21T02:14:58;3.42;;;1.60;;
21000;SDS011;10658;50.920;12.238;2023-11-21T02:18:59;8.60;;;4.97;;
21000;SDS011;10658;50.920;12.238;2023-11-21T02:23:01;9.93;;;5.93;;
21000;SDS011;10658;50.920;12.238;2023-11-21T02:27:02;3.75;;;2.42;;
21000;SDS011;10658;50.920;12.238;2023-11-21T02:31:03;2.20;;;1.52;;
21000;SDS011;10658;50.920;12.238;2023-11-21T02:35:04;3.40;;;2.08;;
21000;SDS011;10658;50.920;12.238;2023-11-21T02:39:08;7.43;;;4.13;;
21000;SDS011;10658;50.920;12.238;2023-11-21T02:43:10;5.32;;;3.28;;
21000;SDS011;10658;50.920;12.238;2023-11-21T02:47:11;6.63;;;4.47;;
21000;SDS011;10658;50.920;12.238;2023-11-21T02:51:12;3.72;;;1.70;;
21000;SDS011;10658;50.920;12.238;2023-11-21T02:55:13;4.43;;;2.53;;
21000;SDS011;10658;50.920;12.238;2023-11-21T02:59:14;6.90;;;3.17;;
21000;SDS011;10658;50.920;12.238;2023-11-21T03:03:15;6.85;;;3.95;;
21000;SDS011;10658;50.920;12.238;2023-11-21T03:07:17;10.85;;;6.35;;
21000;SDS011;10658;50.920;12.238;2023-11-21T03:11:21;11.13;;;6.30;;
21000;SDS011;10658;50.920;12.238;2023-11-21T03:15:22;11.73;;;8.00;;
21000;SDS011;10658;50.920;12.238;2023-11-21T03:19:23;8.40;;;5.57;;
21000;SDS011;10658;50.920;12.238;2023-11-21T03:23:24;18.08;;;11.02;;
21000;SDS011;10658;50.920;12.238;2023-11-21T03:27:25;14.43;;;8.98;;
21000;SDS011;10658;50.920;12.238;2023-11-21T03:31:26;17.13;;;10.25;;
21000;SDS011;10658;50.920;12.238;2023-11-21T03:35:27;11.77;;;6.03;;
21000;SDS011;10658;50.920;12.238;2023-11-21T03:39:28;6.47;;;3.85;;
21000;SDS011;10658;50.920;12.238;2023-11-21T03:43:29;3.55;;;2.40;;
21000;SDS011;10658;50.920;12.238;2023-11-21T03:47:30;11.80;;;7.50;;
21000;SDS011;10658;50.920;12.238;2023-11-21T03:51:31;3.10;;;2.30;;
21000;SDS011;10658;50.920;12.238;2023-11-21T03:55:33;2.15;;;0.98;;
21000;SDS011;10658;50.920;12.238;2023-11-21T03:59:34;2.00;;;0.80;;
21000;SDS011;10658;50.920;12.238;2023-11-21T04:03:34;1.90;;;1.20;;
21000;SDS011;10658;50.920;12.238;2023-11-21T04:07:36;1.05;;;0.90;;
21000;SDS011;10658;50.920;12.238;2023-11-21T04:11:38;7.03;;;3.90;;
21000;SDS011;10658;50.920;12.238;2023-11-21T04:15:39;5.85;;;2.83;;
21000;SDS011;10658;50.920;12.238;2023-11-21T04:19:39;5.45;;;3.50;;
21000;SDS011;10658;50.920;12.238;2023-11-21T04:23:41;2.53;;;1.83;;
21000;SDS011;10658;50.920;12.238;2023-11-21T04:27:43;2.53;;;1.40;;
21000;SDS011;10658;50.920;12.238;2023-11-21T04:31:45;3.97;;;2.80;;
21000;SDS011;10658;50.920;12.238;2023-11-21T04:35:46;7.10;;;4.20;;
21000;SDS011;10658;50.920;12.238;2023-11-21T04:39:47;3.95;;;2.80;;
21000;SDS011;10658;50.920;12.238;2023-11-21T04:43:48;3.05;;;2.20;;
21000;SDS011;10658;50.920;12.238;2023-11-21T04:47:49;4.05;;;2.30;;
21000;SDS011;10658;50.920;12.238;2023-11-21T04:51:50;5.90;;;3.13;;
21000;SDS011;10658;50.920;12.238;2023-11-21T04:55:51;3.10;;;1.92;;
21000;SDS011;10658;50.920;12.238;2023-11-21T04:59:51;3.13;;;1.95;;
21000;SDS011;10658;50.920;12.238;2023-11-21T05:03:52;6.93;;;3.30;;
21000;SDS011;10658;50.920;12.238;2023-11-21T05:07:53;1.42;;;1.33;;
21000;SDS011;10658;50.920;12.238;2023-11-21T05:11:53;1.60;;;1.15;;
21000;SDS011;10658;50.920;12.238;2023-11-21T05:15:55;1.30;;;1.10;;
21000;SDS011;10658;50.920;12.238;2023-11-21T05:19:58;1.08;;;1.00;;
21000;SDS011;10658;50.920;12.238;2023-11-21T05:24:00;3.10;;;1.20;;
21000;SDS011;10658;50.920;12.238;2023-11-21T05:28:01;2.90;;;1.25;;
21000;SDS011;10658;50.920;12.238;2023-11-21T05:32:03;1.38;;;1.10;;
21000;SDS011;10658;50.920;12.238;2023-11-21T05:36:04;2.15;;;1.55;;
21000;SDS011;10658;50.920;12.238;2023-11-21T05:40:08;5.18;;;1.73;;
21000;SDS011;10658;50.920;12.238;2023-11-21T05:44:10;2.55;;;0.90;;
21000;SDS011;10658;50.920;12.238;2023-11-21T05:48:10;1.63;;;1.00;;
21000;SDS011;10658;50.920;12.238;2023-11-21T05:52:11;1.13;;;0.88;;
21000;SDS011;10658;50.920;12.238;2023-11-21T05:56:12;1.10;;;0.80;;
21000;SDS011;10658;50.920;12.238;2023-11-21T06:00:14;1.23;;;0.80;;
21000;SDS011;10658;50.920;12.238;2023-11-21T06:04:18;1.27;;;0.88;;
21000;SDS011;10658;50.920;12.238;2023-11-21T06:08:22;2.05;;;0.80;;
21000;SDS011;10658;50.920;12.238;2023-11-21T06:12:23;3.17;;;0.93;;
21000;SDS011;10658;50.920;12.238;2023-11-21T06:16:23;2.17;;;1.45;;
21000;SDS011;10658;50.920;12.238;2023-11-21T06:20:24;2.55;;;1.10;;
21000;SDS011;10658;50.920;12.238;2023-11-21T06:24:25;1.50;;;1.27;;
21000;SDS011;10658;50.920;12.238;2023-11-21T06:28:26;2.13;;;1.33;;
21000;SDS011;10658;50.920;12.238;2023-11-21T06:32:27;2.50;;;1.13;;
21000;SDS011;10658;50.920;12.238;2023-11-21T06:36:29;1.55;;;1.10;;
21000;SDS011;10658;50.920;12.238;2023-11-21T06:40:30;2.70;;;1.23;;
21000;SDS011;10658;50.920;12.238;2023-11-21T06:44:33;2.42;;;1.30;;
21000;SDS011;10658;50.920;12.238;2023-11-21T06:48:35;1.77;;;1.38;;
21000;SDS011;10658;50.920;12.238;2023-11-21T06:52:38;2.70;;;1.40;;
21000;SDS011;10658;50.920;12.238;2023-11-21T06:56:39;1.95;;;1.75;;
21000;SDS011;10658;50.920;12.238;2023-11-21T07:00:41;1.45;;;1.20;;
21000;SDS011;10658;50.920;12.238;2023-11-21T07:04:46;2.08;;;1.48;;
21000;SDS011;10658;50.920;12.238;2023-11-21T07:08:47;1.63;;;1.30;;
21000;SDS011;10658;50.920;12.238;2023-11-21T07:12:48;2.03;;;1.40;;
21000;SDS011;10658;50.920;12.238;2023-11-21T07:16:49;2.33;;;1.73;;
21000;SDS011;10658;50.920;12.238;2023-11-21T07:20:50;3.33;;;2.08;;
21000;SDS011;10658;50.920;12.238;2023-11-21T07:24:51;2.42;;;2.00;;
21000;SDS011;10658;50.920;12.238;2023-11-21T07:28:52;4.82;;;2.42;;
21000;SDS011;10658;50.920;12.238;2023-11-21T07:32:53;7.78;;;3.80;;
21000;SDS011;10658;50.920;12.238;2023-11-21T07:36:54;5.13;;;3.30;;
21000;SDS011;10658;50.920;12.238;2023-11-21T07:40:54;6.95;;;3.08;;
21000;SDS011;10658;50.920;12.238;2023-11-21T07:44:55;4.93;;;3.20;;
21000;SDS011;10658;50.920;12.238;2023-11-21T07:48:56;6.70;;;3.55;;
21000;SDS011;10658;50.920;12.238;2023-11-21T07:52:57;8.57;;;4.03;;
21000;SDS011;10658;50.920;12.238;2023-11-21T07:56:58;8.40;;;5.20;;
21000;SDS011;10658;50.920;12.238;2023-11-21T08:01:00;9.98;;;5.05;;
21000;SDS011;10658;50.920;12.238;2023-11-21T08:05:28;7.35;;;4.35;;
21000;SDS011;10658;50.920;12.238;2023-11-21T08:09:29;9.75;;;4.15;;
21000;SDS011;10658;50.920;12.238;2023-11-21T08:14:17;6.55;;;3.45;;
21000;SDS011;10658;50.920;12.238;2023-11-21T08:18:18;7.80;;;4.57;;
21000;SDS011;10658;50.920;12.238;2023-11-21T08:22:27;6.55;;;4.30;;
21000;SDS011;10658;50.920;12.238;2023-11-21T08:26:27;5.90;;;3.50;;
21000;SDS011;10658;50.920;12.238;2023-11-21T08:30:28;6.40;;;4.20;;
21000;SDS011;10658;50.920;12.238;2023-11-21T08:34:30;8.00;;;4.72;;
21000;SDS011;10658;50.920;12.238;2023-11-21T08:38:32;15.13;;;5.03;;
21000;SDS011;10658;50.920;12.238;2023-11-21T08:42:34;8.00;;;4.88;;
21000;SDS011;10658;50.920;12.238;2023-11-21T08:46:35;11.35;;;5.75;;
21000;SDS011;10658;50.920;12.238;2023-11-21T08:50:37;12.50;;;5.95;;
21000;SDS011;10658;50.920;12.238;2023-11-21T08:54:38;13.85;;;5.95;;
21000;SDS011;10658;50.920;12.238;2023-11-21T09:03:21;11.23;;;5.75;;
21000;SDS011;10658;50.920;12.238;2023-11-21T09:07:22;14.73;;;5.95;;
21000;SDS011;10658;50.920;12.238;2023-11-21T09:11:23;10.55;;;5.05;;
21000;SDS011;10658;50.920;12.238;2023-11-21T09:15:25;16.38;;;9.27;;
21000;SDS011;10658;50.920;12.238;2023-11-21T09:19:26;16.17;;;9.10;;
21000;SDS011;10658;50.920;12.238;2023-11-21T09:23:27;12.27;;;6.40;;
21000;SDS011;10658;50.920;12.238;2023-11-21T09:27:38;12.50;;;5.97;;
21000;SDS011;10658;50.920;12.238;2023-11-21T09:31:39;12.48;;;6.97;;
21000;SDS011;10658;50.920;12.238;2023-11-21T09:35:40;15.60;;;7.93;;
21000;SDS011;10658;50.920;12.238;2023-11-21T09:39:40;16.58;;;8.20;;
21000;SDS011;10658;50.920;12.238;2023-11-21T09:43:41;21.70;;;10.15;;
21000;SDS011;10658;50.920;12.238;2023-11-21T09:47:44;23.90;;;10.20;;
21000;SDS011;10658;50.920;12.238;2023-11-21T09:51:51;30.73;;;13.13;;
21000;SDS011;10658;50.920;12.238;2023-11-21T09:55:57;29.50;;;12.60;;
21000;SDS011;10658;50.920;12.238;2023-11-21T10:05:20;25.98;;;12.07;;
21000;SDS011;10658;50.920;12.238;2023-11-21T10:09:43;31.17;;;12.93;;
21000;SDS011;10658;50.920;12.238;2023-11-21T10:14:36;29.02;;;13.07;;
21000;SDS011;10658;50.920;12.238;2023-11-21T10:18:54;27.48;;;12.70;;
21000;SDS011;10658;50.920;12.238;2023-11-21T10:23:40;23.08;;;12.55;;
21000;SDS011;10658;50.920;12.238;2023-11-21T10:27:41;25.95;;;12.63;;
21000;SDS011;10658;50.920;12.238;2023-11-21T10:31:48;28.05;;;11.65;;
21000;SDS011;10658;50.920;12.238;2023-11-21T10:35:55;17.42;;;9.45;;
21000;SDS011;10658;50.920;12.238;2023-11-21T10:39:58;19.38;;;9.07;;
21000;SDS011;10658;50.920;12.238;2023-11-21T10:43:59;18.27;;;9.45;;
21000;SDS011;10658;50.920;12.238;2023-11-21T10:48:01;22.83;;;10.85;;
21000;SDS011;10658;50.920;12.238;2023-11-21T10:57:45;15.13;;;7.68;;
21000;SDS011;10658;50.920;12.238;2023-11-21T11:06:23;12.40;;;6.05;;
21000;SDS011;10658;50.920;12.238;2023-11-21T11:10:57;9.20;;;5.68;;
21000;SDS011;10658;50.920;12.238;2023-11-21T11:20:21;5.30;;;3.50;;
21000;SDS011;10658;50.920;12.238;2023-11-21T11:34:17;2.53;;;1.30;;
21000;SDS011;10658;50.920;12.238;2023-11-21T11:38:31;2.10;;;1.13;;
21000;SDS011;10658;50.920;12.238;2023-11-21T11:48:00;1.55;;;1.10;;
21000;SDS011;10658;50.920;12.238;2023-11-21T12:02:27;2.20;;;1.42;;
21000;SDS011;10658;50.920;12.238;2023-11-21T12:06:35;2.75;;;1.50;;
21000;SDS011;10658;50.920;12.238;2023-11-21T12:10:36;2.58;;;1.40;;
21000;SDS011;10658;50.920;12.238;2023-11-21T12:14:39;2.47;;;1.90;;
21000;SDS011;10658;50.920;12.238;2023-11-21T12:18:40;1.52;;;1.38;;
21000;SDS011;10658;50.920;12.238;2023-11-21T12:22:42;1.23;;;0.90;;
21000;SDS011;10658;50.920;12.238;2023-11-21T12:26:50;2.40;;;1.42;;
21000;SDS011;10658;50.920;12.238;2023-11-21T12:30:51;3.72;;;1.90;;
21000;SDS011;10658;50.920;12.238;2023-11-21T12:34:51;3.72;;;1.85;;
21000;SDS011;10658;50.920;12.238;2023-11-21T12:38:53;3.30;;;1.90;;
21000;SDS011;10658;50.920;12.238;2023-11-21T12:42:55;2.58;;;1.42;;
21000;SDS011;10658;50.920;12.238;2023-11-21T12:46:57;1.88;;;1.52;;
21000;SDS011;10658;50.920;12.238;2023-11-21T12:50:59;3.10;;;1.50;;
21000;SDS011;10658;50.920;12.238;2023-11-21T12:55:03;2.45;;;1.40;;
21000;SDS011;10658;50.920;12.238;2023-11-21T12:59:04;3.92;;;2.10;;
21000;SDS011;10658;50.920;12.238;2023-11-21T13:03:05;3.70;;;2.58;;
21000;SDS011;10658;50.920;12.238;2023-11-21T13:07:07;4.53;;;3.00;;
21000;SDS011;10658;50.920;12.238;2023-11-21T13:11:13;5.78;;;3.45;;
21000;SDS011;10658;50.920;12.238;2023-11-21T13:15:14;7.63;;;4.97;;
21000;SDS011;10658;50.920;12.238;2023-11-21T13:19:18;11.13;;;6.40;;
21000;SDS011;10658;50.920;12.238;2023-11-21T13:23:22;10.68;;;6.05;;
21000;SDS011;10658;50.920;12.238;2023-11-21T13:27:23;10.38;;;6.30;;
21000;SDS011;10658;50.920;12.238;2023-11-21T13:31:26;8.05;;;5.07;;
21000;SDS011;10658;50.920;12.238;2023-11-21T13:35:34;9.65;;;4.95;;
21000;SDS011;10658;50.920;12.238;2023-11-21T13:39:42;6.57;;;4.15;;
21000;SDS011;10658;50.920;12.238;2023-11-21T13:43:46;6.43;;;4.03;;
21000;SDS011;10658;50.920;12.238;2023-11-21T13:47:54;5.05;;;3.25;;
21000;SDS011;10658;50.920;12.238;2023-11-21T13:52:01;5.00;;;2.72;;
21000;SDS011;10658;50.920;12.238;2023-11-21T13:56:03;4.25;;;2.70;;
21000;SDS011;10658;50.920;12.238;2023-11-21T14:00:05;2.38;;;1.90;;
21000;SDS011;10658;50.920;12.238;2023-11-21T14:04:11;1.90;;;1.50;;
21000;SDS011;10658;50.920;12.238;2023-11-21T14:08:17;1.98;;;1.45;;
21000;SDS011;10658;50.920;12.238;2023-11-21T14:12:20;3.13;;;1.65;;
21000;SDS011;10658;50.920;12.238;2023-11-21T14:16:21;2.05;;;1.20;;
21000;SDS011;10658;50.920;12.238;2023-11-21T14:20:22;1.48;;;1.05;;
21000;SDS011;10658;50.920;12.238;2023-11-21T14:24:24;2.00;;;1.40;;
21000;SDS011;10658;50.920;12.238;2023-11-21T14:28:25;2.42;;;1.48;;
21000;SDS011;10658;50.920;12.238;2023-11-21T14:32:26;4.55;;;2.67;;
21000;SDS011;10658;50.920;12.238;2023-11-21T14:36:27;6.25;;;3.80;;
21000;SDS011;10658;50.920;12.238;2023-11-21T14:40:28;8.93;;;4.35;;
21000;SDS011;10658;50.920;12.238;2023-11-21T14:44:33;8.85;;;5.20;;
21000;SDS011;10658;50.920;12.238;2023-11-21T14:48:38;9.85;;;5.30;;
21000;SDS011;10658;50.920;12.238;2023-11-21T14:52:42;13.43;;;6.28;;
21000;SDS011;10658;50.920;12.238;2023-11-21T14:56:55;10.88;;;5.43;;
21000;SDS011;10658;50.920;12.238;2023-11-21T15:00:57;9.25;;;5.32;;
21000;SDS011;10658;50.920;12.238;2023-11-21T15:04:59;10.55;;;5.43;;
21000;SDS011;10658;50.920;12.238;2023-11-21T15:09:02;13.48;;;5.32;;
21000;SDS011;10658;50.920;12.238;2023-11-21T15:13:09;10.57;;;5.53;;
21000;SDS011;10658;50.920;12.238;2023-11-21T15:17:12;10.77;;;6.00;;
21000;SDS011;10658;50.920;12.238;2023-11-21T15:21:24;10.68;;;6.28;;
21000;SDS011;10658;50.920;12.238;2023-11-21T15:25:25;10.13;;;5.18;;
21000;SDS011;10658;50.920;12.238;2023-11-21T15:29:26;9.45;;;5.82;;
21000;SDS011;10658;50.920;12.238;2023-11-21T15:33:27;9.70;;;5.43;;
21000;SDS011;10658;50.920;12.238;2023-11-21T15:37:28;9.50;;;5.00;;
21000;SDS011;10658;50.920;12.238;2023-11-21T15:41:29;8.15;;;4.88;;
21000;SDS011;10658;50.920;12.238;2023-11-21T15:45:30;6.90;;;4.63;;
21000;SDS011;10658;50.920;12.238;2023-11-21T15:49:31;11.23;;;5.38;;
21000;SDS011;10658;50.920;12.238;2023-11-21T15:53:35;7.57;;;5.07;;
21000;SDS011;10658;50.920;12.238;2023-11-21T15:57:36;7.38;;;4.38;;
21000;SDS011;10658;50.920;12.238;2023-11-21T16:01:37;7.50;;;4.13;;
21000;SDS011;10658;50.920;12.238;2023-11-21T16:05:43;8.60;;;4.45;;
21000;SDS011;10658;50.920;12.238;2023-11-21T16:09:44;5.68;;;3.63;;
21000;SDS011;10658;50.920;12.238;2023-11-21T16:13:45;7.10;;;4.28;;
21000;SDS011;10658;50.920;12.238;2023-11-21T16:17:46;6.57;;;4.15;;
21000;SDS011;10658;50.920;12.238;2023-11-21T16:21:48;6.68;;;3.58;;
21000;SDS011;10658;50.920;12.238;2023-11-21T16:25:49;6.18;;;3.90;;
21000;SDS011;10658;50.920;12.238;2023-11-21T16:29:55;6.70;;;3.63;;
21000;SDS011;10658;50.920;12.238;2023-11-21T16:33:56;6.15;;;3.88;;
21000;SDS011;10658;50.920;12.238;2023-11-21T16:37:57;6.35;;;3.28;;
21000;SDS011;10658;50.920;12.238;2023-11-21T16:41:59;5.53;;;3.15;;
21000;SDS011;10658;50.920;12.238;2023-11-21T16:46:00;7.00;;;3.53;;
21000;SDS011;10658;50.920;12.238;2023-11-21T16:50:01;5.15;;;3.03;;
21000;SDS011;10658;50.920;12.238;2023-11-21T16:54:02;6.25;;;3.50;;
21000;SDS011;10658;50.920;12.238;2023-11-21T16:58:04;5.35;;;3.50;;
21000;SDS011;10658;50.920;12.238;2023-11-21T17:02:05;4.90;;;3.25;;
21000;SDS011;10658;50.920;12.238;2023-11-21T17:06:06;4.55;;;3.22;;
21000;SDS011;10658;50.920;12.238;2023-11-21T17:10:06;6.32;;;3.67;;
21000;SDS011;10658;50.920;12.238;2023-11-21T17:14:09;6.20;;;3.15;;
21000;SDS011;10658;50.920;12.238;2023-11-21T17:18:11;5.88;;;3.17;;
21000;SDS011;10658;50.920;12.238;2023-11-21T17:22:12;5.30;;;3.33;;
21000;SDS011;10658;50.920;12.238;2023-11-21T17:26:13;9.85;;;4.32;;
21000;SDS011;10658;50.920;12.238;2023-11-21T17:30:15;10.65;;;5.32;;
21000;SDS011;10658;50.920;12.238;2023-11-21T17:34:17;10.00;;;6.03;;
21000;SDS011;10658;50.920;12.238;2023-11-21T17:38:19;10.13;;;6.25;;
21000;SDS011;10658;50.920;12.238;2023-11-21T17:42:20;7.75;;;4.10;;
21000;SDS011;10658;50.920;12.238;2023-11-21T17:46:21;6.00;;;3.60;;
21000;SDS011;10658;50.920;12.238;2023-11-21T17:50:22;4.97;;;2.78;;
21000;SDS011;10658;50.920;12.238;2023-11-21T17:54:24;4.72;;;2.70;;
21000;SDS011;10658;50.920;12.238;2023-11-21T17:58:24;5.30;;;3.30;;
21000;SDS011;10658;50.920;12.238;2023-11-21T18:02:25;5.13;;;3.13;;
21000;SDS011;10658;50.920;12.238;2023-11-21T18:06:28;5.22;;;3.50;;
21000;SDS011;10658;50.920;12.238;2023-11-21T18:10:29;5.35;;;3.20;;
21000;SDS011;10658;50.920;12.238;2023-11-21T18:14:30;3.72;;;2.55;;
21000;SDS011;10658;50.920;12.238;2023-11-21T18:18:31;3.22;;;2.72;;
21000;SDS011;10658;50.920;12.238;2023-11-21T18:22:31;4.55;;;3.00;;
21000;SDS011;10658;50.920;12.238;2023-11-21T18:26:32;7.55;;;3.20;;
21000;SDS011;10658;50.920;12.238;2023-11-21T18:30:34;5.30;;;3.60;;
21000;SDS011;10658;50.920;12.238;2023-11-21T18:34:35;4.78;;;2.85;;
21000;SDS011;10658;50.920;12.238;2023-11-21T18:38:37;4.85;;;2.97;;
21000;SDS011;10658;50.920;12.238;2023-11-21T18:42:38;6.90;;;2.90;;
21000;SDS011;10658;50.920;12.238;2023-11-21T18:46:39;4.57;;;2.78;;
21000;SDS011;10658;50.920;12.238;2023-11-21T18:50:40;5.15;;;3.38;;
21000;SDS011;10658;50.920;12.238;2023-11-21T18:54:41;6.25;;;4.00;;
21000;SDS011;10658;50.920;12.238;2023-11-21T18:58:43;10.45;;;6.00;;
21000;SDS011;10658;50.920;12.238;2023-11-21T19:02:44;10.75;;;6.40;;
21000;SDS011;10658;50.920;12.238;2023-11-21T19:06:46;10.40;;;6.35;;
21000;SDS011;10658;50.920;12.238;2023-11-21T19:10:47;9.55;;;6.60;;
21000;SDS011;10658;50.920;12.238;2023-11-21T19:14:48;10.82;;;7.32;;
21000;SDS011;10658;50.920;12.238;2023-11-21T19:18:51;10.45;;;6.22;;
21000;SDS011;10658;50.920;12.238;2023-11-21T19:22:52;9.10;;;5.43;;
21000;SDS011;10658;50.920;12.238;2023-11-21T19:26:53;9.32;;;5.82;;
21000;SDS011;10658;50.920;12.238;2023-11-21T19:30:55;7.95;;;5.30;;
21000;SDS011;10658;50.920;12.238;2023-11-21T19:34:56;12.63;;;6.78;;
21000;SDS011;10658;50.920;12.238;2023-11-21T19:38:57;10.88;;;6.50;;
21000;SDS011;10658;50.920;12.238;2023-11-21T19:42:59;11.82;;;6.38;;
21000;SDS011;10658;50.920;12.238;2023-11-21T19:47:00;9.70;;;5.65;;
21000;SDS011;10658;50.920;12.238;2023-11-21T19:51:02;11.45;;;5.75;;
21000;SDS011;10658;50.920;12.238;2023-11-21T19:55:06;11.48;;;6.10;;
21000;SDS011;10658;50.920;12.238;2023-11-21T19:59:08;10.23;;;5.40;;
21000;SDS011;10658;50.920;12.238;2023-11-21T20:03:09;11.32;;;6.55;;
21000;SDS011;10658;50.920;12.238;2023-11-21T20:07:10;12.02;;;6.38;;
21000;SDS011;10658;50.920;12.238;2023-11-21T20:11:11;11.43;;;6.55;;
21000;SDS011;10658;50.920;12.238;2023-11-21T20:15:12;11.95;;;5.72;;
21000;SDS011;10658;50.920;12.238;2023-11-21T20:19:13;10.75;;;5.78;;
21000;SDS011;10658;50.920;12.238;2023-11-21T20:23:14;10.55;;;5.82;;
21000;SDS011;10658;50.920;12.238;2023-11-21T20:27:18;11.07;;;5.85;;
21000;SDS011;10658;50.920;12.238;2023-11-21T20:31:19;10.20;;;5.65;;
21000;SDS011;10658;50.920;12.238;2023-11-21T20:35:20;11.57;;;5.78;;
21000;SDS011;10658;50.920;12.238;2023-11-21T20:39:21;8.85;;;5.95;;
21000;SDS011;10658;50.920;12.238;2023-11-21T20:43:23;12.55;;;5.80;;
21000;SDS011;10658;50.920;12.238;2023-11-21T20:47:24;15.55;;;7.10;;
21000;SDS011;10658;50.920;12.238;2023-11-21T20:51:25;13.90;;;7.50;;
21000;SDS011;10658;50.920;12.238;2023-11-21T20:55:26;14.27;;;7.50;;
21000;SDS011;10658;50.920;12.238;2023-11-21T20:59:28;14.80;;;7.10;;
21000;SDS011;10658;50.920;12.238;2023-11-21T21:03:28;14.48;;;9.32;;
21000;SDS011;10658;50.920;12.238;2023-11-21T21:07:29;14.13;;;8.00;;
21000;SDS011;10658;50.920;12.238;2023-11-21T21:11:30;19.52;;;9.23;;
21000;SDS011;10658;50.920;12.238;2023-11-21T21:15:32;17.15;;;8.82;;
21000;SDS011;10658;50.920;12.238;2023-11-21T21:19:32;17.63;;;8.63;;
21000;SDS011;10658;50.920;12.238;2023-11-21T21:23:33;12.85;;;7.00;;
21000;SDS011;10658;50.920;12.238;2023-11-21T21:27:34;14.98;;;7.47;;
21000;SDS011;10658;50.920;12.238;2023-11-21T21:31:36;12.35;;;6.97;;
21000;SDS011;10658;50.920;12.238;2023-11-21T21:35:37;13.70;;;8.02;;
21000;SDS011;10658;50.920;12.238;2023-11-21T21:39:39;15.10;;;7.35;;
21000;SDS011;10658;50.920;12.238;2023-11-21T21:43:40;11.77;;;6.85;;
21000;SDS011;10658;50.920;12.238;2023-11-21T21:47:41;15.40;;;6.97;;
21000;SDS011;10658;50.920;12.238;2023-11-21T21:51:41;11.82;;;6.93;;
21000;SDS011;10658;50.920;12.238;2023-11-21T21:55:42;12.60;;;6.18;;
21000;SDS011;10658;50.920;12.238;2023-11-21T21:59:43;18.40;;;7.28;;
21000;SDS011;10658;50.920;12.238;2023-11-21T22:03:44;13.07;;;6.35;;
21000;SDS011;10658;50.920;12.238;2023-11-21T22:07:45;12.07;;;6.57;;
21000;SDS011;10658;50.920;12.238;2023-11-21T22:11:45;11.05;;;7.38;;
21000;SDS011;10658;50.920;12.238;2023-11-21T22:15:46;11.70;;;6.63;;
21000;SDS011;10658;50.920;12.238;2023-11-21T22:19:47;9.80;;;5.85;;
21000;SDS011;10658;50.920;12.238;2023-11-21T22:23:48;12.93;;;6.90;;
21000;SDS011;10658;50.920;12.238;2023-11-21T22:27:51;12.05;;;7.18;;
21000;SDS011;10658;50.920;12.238;2023-11-21T22:31:53;12.52;;;7.22;;
21000;SDS011;10658;50.920;12.238;2023-11-21T22:35:54;12.38;;;8.07;;
21000;SDS011;10658;50.920;12.238;2023-11-21T22:39:55;12.18;;;6.93;;
21000;SDS011;10658;50.920;12.238;2023-11-21T22:43:56;11.88;;;7.40;;
21000;SDS011;10658;50.920;12.238;2023-11-21T22:47:56;11.05;;;6.15;;
21000;SDS011;10658;50.920;12.238;2023-11-21T22:51:57;11.32;;;6.05;;
21000;SDS011;10658;50.920;12.238;2023-11-21T22:55:58;9.30;;;6.50;;
21000;SDS011;10658;50.920;12.238;2023-11-21T22:59:59;7.90;;;5.32;;
21000;SDS011;10658;50.920;12.238;2023-11-21T23:04:00;11.98;;;6.85;;
21000;SDS011;10658;50.920;12.238;2023-11-21T23:08:04;11.48;;;6.47;;
21000;SDS011;10658;50.920;12.238;2023-11-21T23:12:05;9.52;;;6.10;;
21000;SDS011;10658;50.920;12.238;2023-11-21T23:16:06;11.95;;;7.05;;
21000;SDS011;10658;50.920;12.238;2023-11-21T23:20:07;15.55;;;9.07;;
21000;SDS011;10658;50.920;12.238;2023-11-21T23:24:09;13.52;;;7.82;;
21000;SDS011;10658;50.920;12.238;2023-11-21T23:28:11;16.50;;;8.18;;
21000;SDS011;10658;50.920;12.238;2023-11-21T23:32:12;13.05;;;7.90;;
21000;SDS011;10658;50.920;12.238;2023-11-21T23:36:13;12.75;;;7.40;;
21000;SDS011;10658;50.920;12.238;2023-11-21T23:40:17;16.08;;;8.30;;
21000;SDS011;10658;50.920;12.238;2023-11-21T23:44:17;14.55;;;8.60;;
21000;SDS011;10658;50.920;12.238;2023-11-21T23:48:19;12.45;;;7.15;;
21000;SDS011;10658;50.920;12.238;2023-11-21T23:52:20;17.67;;;8.15;;
21000;SDS011;10658;50.920;12.238;2023-11-21T23:56:22;15.45;;;8.70;;
